Time;durP1;ratioP1;P1;durP2;ratioP2;P2;SDS_P1;SDS_P2;PMS_P1;PMS_P2;Temp;Humidity;BMP_temperature;BMP_pressure;BME280_temperature;BME280_humidity;BME280_pressure;Samples;Min_cycle;Max_cycle;Signal;HPM_P1;HPM_P2
2021/12/25 00:01:03;;;;;;;4.95;1.10;;;-1.50;99.90;;;;;;4936238;29;20126;-81
2021/12/25 00:03:29;;;;;;;5.38;1.08;;;-1.60;99.90;;;;;;4956215;28;20538;-80
2021/12/25 00:05:55;;;;;;;3.22;0.88;;;-1.60;99.90;;;;;;4941356;29;20063;-80
2021/12/25 00:08:23;;;;;;;5.32;1.08;;;-1.70;99.90;;;;;;4941440;29;20395;-80
2021/12/25 00:10:49;;;;;;;3.35;1.02;;;-1.70;99.90;;;;;;4939621;29;20058;-80
2021/12/25 00:13:16;;;;;;;2.63;0.70;;;-0.70;99.90;;;;;;4938839;29;20504;-79
2021/12/25 00:15:42;;;;;;;6.93;1.02;;;-1.80;99.90;;;;;;4939401;29;20048;-79
2021/12/25 00:18:09;;;;;;;4.95;0.85;;;-1.90;99.90;;;;;;4939536;29;20083;-78
2021/12/25 00:20:34;;;;;;;3.33;0.90;;;-1.90;99.90;;;;;;4939204;29;20051;-78
2021/12/25 00:23:04;;;;;;;4.10;0.85;;;-2.00;99.90;;;;;;4922094;29;20059;-79
2021/12/25 00:25:33;;;;;;;3.58;0.90;;;-2.00;99.90;;;;;;4939378;29;20048;-78
2021/12/25 00:34:01;;;;;;;3.85;1.27;;;-2.10;99.90;;;;;;4861412;29;20068;-78
2021/12/25 00:36:27;;;;;;;2.28;0.55;;;-2.10;99.90;;;;;;4861863;29;20061;-78
2021/12/25 00:38:54;;;;;;;7.97;1.42;;;-2.10;99.90;;;;;;4846275;29;20050;-78
2021/12/25 00:41:22;;;;;;;4.53;1.42;;;-2.20;99.90;;;;;;4861568;29;20455;-78
2021/12/25 00:43:51;;;;;;;4.43;0.95;;;-2.20;99.90;;;;;;4861130;29;20061;-77
2021/12/25 00:46:17;;;;;;;7.88;0.93;;;-2.20;99.90;;;;;;4861413;29;20053;-77
2021/12/25 00:48:42;;;;;;;2.97;0.80;;;-2.20;99.90;;;;;;4861314;29;20064;-77
2021/12/25 00:51:08;;;;;;;2.58;0.80;;;-2.20;99.90;;;;;;4861402;29;20049;-78
2021/12/25 00:53:34;;;;;;;3.53;0.85;;;-2.30;99.90;;;;;;4861337;29;20057;-77
2021/12/25 00:56:00;;;;;;;2.55;0.80;;;-2.30;99.90;;;;;;4861455;29;20140;-77
2021/12/25 00:58:25;;;;;;;4.65;0.93;;;-2.30;99.90;;;;;;4861160;29;20180;-78
2021/12/25 01:00:51;;;;;;;1.30;0.52;;;-2.40;99.90;;;;;;4860831;29;20064;-78
2021/12/25 01:03:17;;;;;;;5.40;1.60;;;-2.40;99.90;;;;;;4860991;29;20384;-77
2021/12/25 01:05:43;;;;;;;3.42;0.70;;;-2.40;99.90;;;;;;4914960;29;20071;-77
2021/12/25 01:08:10;;;;;;;2.58;0.90;;;-2.50;99.90;;;;;;4919625;29;20052;-77
2021/12/25 01:10:36;;;;;;;5.40;0.98;;;-2.50;99.90;;;;;;4953618;29;20126;-76
2021/12/25 01:13:19;;;;;;;4.57;1.58;;;-2.50;99.90;;;;;;4938635;29;20138;-75
2021/12/25 01:21:31;;;;;;;7.85;1.88;;;-2.60;99.90;;;;;;4938051;29;20160;-76
2021/12/25 01:48:14;;;;;;;1.95;0.88;;;-2.80;99.90;;;;;;4897271;29;20044;-76
2021/12/25 01:50:39;;;;;;;4.15;0.88;;;-2.90;99.90;;;;;;4897506;29;20154;-76
2021/12/25 01:53:05;;;;;;;3.22;1.00;;;-3.00;99.90;;;;;;4881997;29;20099;-76
2021/12/25 01:55:31;;;;;;;2.58;0.90;;;-2.90;99.90;;;;;;4897400;29;20063;-76
2021/12/25 01:57:59;;;;;;;2.30;0.90;;;-2.90;99.90;;;;;;4881459;29;20556;-77
2021/12/25 02:00:45;;;;;;;4.35;1.27;;;-3.00;99.90;;;;;;4897350;29;20061;-76
2021/12/25 02:03:13;;;;;;;2.92;0.90;;;-2.90;99.90;;;;;;4881594;29;20076;-76
2021/12/25 02:05:39;;;;;;;5.47;0.93;;;-3.00;99.90;;;;;;4897300;29;20048;-77
2021/12/25 02:08:05;;;;;;;2.13;0.73;;;-3.00;99.90;;;;;;4902672;29;20078;-76
2021/12/25 02:10:31;;;;;;;5.55;1.88;;;-3.00;99.90;;;;;;4937076;29;20531;-74
2021/12/25 02:12:57;;;;;;;2.92;0.60;;;-1.80;99.90;;;;;;4920201;29;20076;-76
2021/12/25 02:15:24;;;;;;;2.30;0.70;;;-3.10;99.90;;;;;;4937239;29;20052;-76
2021/12/25 02:20:27;;;;;;;1.80;0.70;;;-3.20;99.90;;;;;;4936497;29;20111;-76
2021/12/25 02:22:59;;;;;;;3.58;0.90;;;-3.10;99.90;;;;;;4937204;29;20043;-74
2021/12/25 02:25:26;;;;;;;3.58;1.02;;;-3.10;99.90;;;;;;4936579;29;20079;-76
2021/12/25 02:27:51;;;;;;;3.03;0.77;;;-3.20;99.90;;;;;;4936706;29;20050;-76
2021/12/25 02:30:17;;;;;;;6.63;1.25;;;-3.20;99.90;;;;;;4935337;29;20056;-76
2021/12/25 02:32:45;;;;;;;2.95;0.68;;;-3.30;99.90;;;;;;4936820;29;20051;-74
2021/12/25 02:35:13;;;;;;;4.22;1.10;;;-2.40;99.90;;;;;;4919180;29;20115;-76
2021/12/25 02:37:40;;;;;;;4.00;0.93;;;-3.30;99.90;;;;;;4936664;29;20040;-72
2021/12/25 02:40:11;;;;;;;2.22;0.80;;;-3.30;99.90;;;;;;4919957;29;20051;-76
2021/12/25 02:42:36;;;;;;;2.42;0.80;;;-3.40;99.90;;;;;;4936780;29;20043;-76
2021/12/25 02:45:06;;;;;;;2.33;0.63;;;-3.40;99.90;;;;;;4936855;29;20484;-76
2021/12/25 02:47:35;;;;;;;1.08;0.60;;;-3.40;99.90;;;;;;4919541;29;20056;-75
2021/12/25 02:50:01;;;;;;;3.92;0.90;;;-3.50;99.90;;;;;;4936528;29;20130;-76
2021/12/25 02:52:27;;;;;;;3.45;0.80;;;-2.50;99.90;;;;;;4934920;29;20171;-76
2021/12/25 02:54:52;;;;;;;6.05;1.30;;;-3.40;99.90;;;;;;4936456;29;20083;-76
2021/12/25 02:57:18;;;;;;;3.85;0.95;;;-3.50;99.90;;;;;;4936636;29;20036;-77
2021/12/25 02:59:44;;;;;;;2.17;0.80;;;-3.50;99.90;;;;;;4936614;29;20130;-76
2021/12/25 03:02:12;;;;;;;2.72;0.75;;;-3.50;99.90;;;;;;4919308;29;20122;-76
2021/12/25 03:04:40;;;;;;;7.53;1.25;;;-3.50;99.90;;;;;;4919528;29;20148;-77
2021/12/25 03:07:06;;;;;;;1.75;0.77;;;-3.50;99.90;;;;;;4936027;29;20051;-76
2021/12/25 03:09:33;;;;;;;2.58;0.90;;;-3.60;99.90;;;;;;4918891;29;20102;-76
2021/12/25 03:11:59;;;;;;;1.70;1.00;;;-3.60;99.90;;;;;;4936462;29;20423;-76
2021/12/25 03:14:36;;;;;;;3.67;0.95;;;-3.60;99.90;;;;;;4936317;29;20376;-76
2021/12/25 03:17:03;;;;;;;2.70;0.80;;;-3.60;99.90;;;;;;4936108;29;20058;-74
2021/12/25 03:19:33;;;;;;;4.78;0.90;;;-3.70;99.90;;;;;;4936410;29;20043;-76
2021/12/25 03:22:01;;;;;;;3.45;0.80;;;-3.70;99.90;;;;;;4935983;29;20044;-76
2021/12/25 03:24:27;;;;;;;5.22;0.80;;;-3.70;99.90;;;;;;4935993;29;20094;-77
2021/12/25 03:26:56;;;;;;;7.03;1.23;;;-3.70;99.90;;;;;;4935940;29;20048;-75
2021/12/25 03:29:23;;;;;;;3.15;0.90;;;-3.70;99.90;;;;;;4936069;29;20047;-76
2021/12/25 03:31:49;;;;;;;2.13;0.70;;;-3.70;99.90;;;;;;4936031;29;20055;-75
2021/12/25 03:34:16;;;;;;;3.97;0.85;;;-3.70;99.90;;;;;;4935843;29;20130;-75
2021/12/25 03:36:42;;;;;;;2.38;0.70;;;-3.80;99.90;;;;;;4936064;29;20114;-76
2021/12/25 03:39:08;;;;;;;3.63;0.90;;;-3.80;99.90;;;;;;4938602;29;20388;-75
2021/12/25 03:41:34;;;;;;;2.13;0.80;;;-3.80;99.90;;;;;;4907097;29;20099;-76
2021/12/25 03:44:00;;;;;;;2.58;1.15;;;-3.80;99.90;;;;;;4940162;29;20051;-76
2021/12/25 03:46:31;;;;;;;3.75;0.82;;;-3.90;99.90;;;;;;4939787;29;20480;-75
2021/12/25 03:49:25;;;;;;;4.50;1.00;;;-3.90;99.90;;;;;;4923016;29;20127;-76
2021/12/25 04:00:06;;;;;;;4.97;0.70;;;-4.00;99.90;;;;;;4939787;29;20055;-75
2021/12/25 04:02:36;;;;;;;4.20;1.25;;;-4.00;99.90;;;;;;4939768;29;20046;-75
2021/12/25 04:05:05;;;;;;;3.15;0.77;;;-4.00;99.90;;;;;;4939692;29;20095;-76
2021/12/25 04:10:15;;;;;;;3.10;0.68;;;-3.90;99.90;;;;;;4939207;29;20090;-75
2021/12/25 04:12:41;;;;;;;3.83;0.70;;;-4.00;99.90;;;;;;4939642;29;20063;-75
2021/12/25 04:15:07;;;;;;;2.53;0.60;;;-4.00;99.90;;;;;;4939535;29;20055;-75
2021/12/25 04:17:32;;;;;;;3.88;0.80;;;-3.90;99.90;;;;;;4939552;29;20044;-75
2021/12/25 04:19:58;;;;;;;1.58;0.70;;;-4.00;99.90;;;;;;4939303;29;20078;-75
2021/12/25 04:22:33;;;;;;;4.88;0.75;;;-4.00;99.90;;;;;;4939439;29;20077;-76
2021/12/25 04:24:59;;;;;;;1.63;0.60;;;-4.00;99.90;;;;;;4939392;29;20052;-74
2021/12/25 04:27:25;;;;;;;3.80;1.02;;;-4.00;99.90;;;;;;4938562;29;20052;-77
2021/12/25 05:03:08;;;;;;;1.77;0.57;;;-4.10;99.90;;;;;;4879948;29;20556;-76
2021/12/25 05:05:35;;;;;;;1.67;0.77;;;-4.20;99.90;;;;;;4879765;29;20446;-77
2021/12/25 05:08:00;;;;;;;2.08;0.85;;;-4.20;99.90;;;;;;4879822;29;20057;-77
2021/12/25 05:10:26;;;;;;;4.93;0.60;;;-4.20;99.90;;;;;;4864324;29;20061;-74
2021/12/25 05:12:52;;;;;;;2.85;0.77;;;-3.10;99.90;;;;;;4863881;29;20057;-75
2021/12/25 05:15:17;;;;;;;3.85;0.80;;;-4.20;99.90;;;;;;4879157;29;20144;-76
2021/12/25 05:17:43;;;;;;;2.47;0.70;;;-4.30;99.90;;;;;;4879512;29;20063;-75
2021/12/25 05:20:09;;;;;;;2.15;0.73;;;-4.30;99.90;;;;;;4879575;29;20053;-76
2021/12/25 05:22:35;;;;;;;3.97;0.88;;;-4.30;99.90;;;;;;4864159;29;20080;-77
2021/12/25 05:25:01;;;;;;;5.88;0.80;;;-4.30;99.90;;;;;;4879467;29;20061;-75
2021/12/25 05:27:27;;;;;;;1.65;0.70;;;-4.30;99.90;;;;;;4879391;29;20042;-75
2021/12/25 05:29:52;;;;;;;3.65;0.88;;;-4.40;99.90;;;;;;4884076;29;20131;-75
2021/12/25 05:32:19;;;;;;;3.65;1.00;;;-4.40;99.90;;;;;;4938254;29;20047;-75
2021/12/25 05:34:45;;;;;;;2.90;0.75;;;-4.40;99.90;;;;;;4937728;29;20067;-76
2021/12/25 05:37:11;;;;;;;2.40;0.77;;;-4.50;99.90;;;;;;4938101;29;20059;-75
2021/12/25 05:39:39;;;;;;;0.93;0.60;;;-4.50;99.90;;;;;;4920959;29;20047;-75
2021/12/25 05:42:05;;;;;;;2.67;0.70;;;-4.50;99.90;;;;;;4938073;29;20055;-75
2021/12/25 05:44:32;;;;;;;4.95;1.13;;;-4.60;99.90;;;;;;4937894;29;20431;-75
2021/12/25 05:46:57;;;;;;;3.05;0.60;;;-4.60;99.90;;;;;;4937608;29;20046;-75
2021/12/25 05:49:27;;;;;;;4.10;1.15;;;-4.70;99.90;;;;;;4937449;29;20518;-75
2021/12/25 05:51:52;;;;;;;2.40;0.77;;;-4.70;99.90;;;;;;4920811;29;20043;-76
2021/12/25 05:54:18;;;;;;;2.35;0.68;;;-4.80;99.90;;;;;;4937567;29;20503;-75
2021/12/25 05:56:44;;;;;;;2.33;0.80;;;-4.80;99.90;;;;;;4920532;29;20063;-75
2021/12/25 05:59:09;;;;;;;2.13;0.90;;;-4.80;99.90;;;;;;4937847;29;20503;-75
2021/12/25 06:01:35;;;;;;;1.10;0.70;;;-4.80;99.90;;;;;;4936390;29;20048;-75
2021/12/25 06:04:00;;;;;;;4.35;0.82;;;-4.80;99.90;;;;;;4920535;29;20119;-76
2021/12/25 06:06:26;;;;;;;0.88;0.65;;;-4.90;99.90;;;;;;4937522;29;20067;-75
2021/12/25 06:08:52;;;;;;;2.00;0.68;;;-4.90;99.90;;;;;;4937501;29;20427;-75
2021/12/25 06:11:18;;;;;;;2.25;0.60;;;-4.90;99.90;;;;;;4920607;29;20055;-74
2021/12/25 06:13:55;;;;;;;2.70;0.65;;;-4.90;99.90;;;;;;4937501;29;20056;-75
2021/12/25 06:16:21;;;;;;;3.33;0.90;;;-4.90;99.90;;;;;;4937195;29;20408;-75
2021/12/25 06:18:47;;;;;;;3.20;0.90;;;-4.90;99.90;;;;;;4920047;29;20122;-75
2021/12/25 06:21:13;;;;;;;3.05;1.10;;;-4.90;99.90;;;;;;4936958;29;20449;-74
2021/12/25 06:23:38;;;;;;;4.70;0.98;;;-4.90;99.90;;;;;;4936910;29;20129;-75
2021/12/25 06:26:04;;;;;;;2.33;0.90;;;-4.90;99.90;;;;;;4936777;29;20048;-75
2021/12/25 06:28:29;;;;;;;2.47;0.70;;;-5.00;99.90;;;;;;4919880;29;20067;-75
2021/12/25 06:30:55;;;;;;;2.85;1.05;;;-4.90;99.90;;;;;;4937165;29;20048;-75
2021/12/25 06:33:21;;;;;;;3.83;0.80;;;-3.50;99.90;;;;;;4936393;29;20055;-74
2021/12/25 06:35:46;;;;;;;3.05;1.10;;;-4.90;99.90;;;;;;4936834;29;20048;-74
2021/12/25 06:38:12;;;;;;;2.30;1.00;;;-5.00;99.90;;;;;;4936825;29;20047;-74
2021/12/25 06:40:38;;;;;;;2.60;0.88;;;-5.00;99.90;;;;;;4936884;29;20044;-75
2021/12/25 06:43:04;;;;;;;1.92;0.77;;;-5.00;99.90;;;;;;4904023;29;20051;-75
2021/12/25 06:45:31;;;;;;;3.42;0.95;;;-5.00;99.90;;;;;;4936795;29;20055;-74
2021/12/25 06:47:56;;;;;;;3.13;1.05;;;-5.00;99.90;;;;;;4936831;29;20447;-75
2021/12/25 06:50:23;;;;;;;3.80;0.90;;;-5.10;99.90;;;;;;4936665;29;20079;-75
2021/12/25 06:52:48;;;;;;;3.45;0.70;;;-5.10;99.90;;;;;;4936782;29;20047;-74
2021/12/25 06:55:14;;;;;;;1.42;0.75;;;-5.10;99.90;;;;;;4919275;29;20491;-74
2021/12/25 06:57:51;;;;;;;3.28;0.98;;;-5.10;99.90;;;;;;4936829;29;20039;-74
2021/12/25 07:00:17;;;;;;;5.47;1.30;;;-5.10;99.90;;;;;;4919565;29;20051;-75
2021/12/25 07:02:43;;;;;;;2.40;0.88;;;-5.20;99.90;;;;;;4919368;29;20047;-75
2021/12/25 07:05:09;;;;;;;2.75;1.00;;;-5.20;99.90;;;;;;4918997;29;20428;-75
2021/12/25 07:07:35;;;;;;;2.10;0.80;;;-5.20;99.90;;;;;;4936326;29;20474;-73
2021/12/25 07:10:00;;;;;;;4.00;0.90;;;-5.20;99.90;;;;;;4919281;29;20054;-75
2021/12/25 07:12:28;;;;;;;4.22;1.08;;;-5.20;99.90;;;;;;4936386;29;20044;-74
2021/12/25 07:14:53;;;;;;;4.80;1.35;;;-5.20;99.90;;;;;;4936358;29;20075;-76
2021/12/25 07:17:19;;;;;;;2.47;0.90;;;-5.20;99.90;;;;;;4936147;29;20550;-74
2021/12/25 07:19:44;;;;;;;3.08;1.00;;;-5.20;99.90;;;;;;4920784;29;20043;-75
2021/12/25 07:22:10;;;;;;;4.43;1.30;;;-5.20;99.90;;;;;;4902710;29;20519;-76
2021/12/25 07:24:36;;;;;;;5.93;1.67;;;-5.20;99.90;;;;;;4936337;29;20117;-75
2021/12/25 07:27:05;;;;;;;4.82;1.23;;;-5.20;99.90;;;;;;4923126;29;20043;-75
2021/12/25 07:29:31;;;;;;;4.15;1.40;;;-5.20;99.90;;;;;;4938743;29;20098;-76
2021/12/25 07:31:57;;;;;;;11.13;4.10;;;-5.20;99.90;;;;;;4936558;29;20047;-74
2021/12/25 07:34:23;;;;;;;12.98;5.80;;;-5.20;99.90;;;;;;4918840;29;20419;-74
2021/12/25 07:36:48;;;;;;;8.05;3.40;;;-5.20;99.90;;;;;;4935938;29;20051;-75
2021/12/25 07:39:14;;;;;;;6.82;2.03;;;-5.20;99.90;;;;;;4918890;29;20056;-76
2021/12/25 07:41:40;;;;;;;8.80;4.60;;;-5.30;99.90;;;;;;4936242;29;20365;-75
2021/12/25 07:44:05;;;;;;;6.72;2.55;;;-5.30;99.90;;;;;;4935944;29;20088;-76
2021/12/25 07:46:32;;;;;;;6.35;2.08;;;-5.30;99.90;;;;;;4936201;29;20385;-76
2021/12/25 07:48:58;;;;;;;4.22;1.83;;;-5.30;99.90;;;;;;4936253;29;20052;-76
2021/12/25 07:51:24;;;;;;;3.78;1.38;;;-5.20;99.90;;;;;;4918575;29;20151;-76
2021/12/25 07:53:50;;;;;;;3.10;1.08;;;-5.20;99.90;;;;;;4935637;29;20051;-76
2021/12/25 07:56:16;;;;;;;5.50;1.15;;;-5.20;99.90;;;;;;4918659;29;20066;-75
2021/12/25 07:58:42;;;;;;;3.67;1.17;;;-5.20;99.90;;;;;;4918514;29;20076;-75
2021/12/25 08:01:09;;;;;;;3.80;1.27;;;-5.20;99.90;;;;;;4935994;29;20059;-75
2021/12/25 08:03:35;;;;;;;3.17;1.00;;;-5.20;99.90;;;;;;4935577;29;20492;-75
2021/12/25 08:06:02;;;;;;;5.97;1.27;;;-5.20;99.90;;;;;;4918300;29;20055;-77
2021/12/25 08:08:27;;;;;;;5.30;1.27;;;-5.20;99.90;;;;;;4935589;29;20404;-77
2021/12/25 08:10:55;;;;;;;6.53;1.10;;;-5.20;99.90;;;;;;4935869;29;20044;-76
2021/12/25 08:13:22;;;;;;;5.22;1.20;;;-5.20;99.90;;;;;;4935476;29;20083;-74
2021/12/25 08:15:47;;;;;;;5.13;1.60;;;-5.20;99.90;;;;;;4935679;29;20050;-73
2021/12/25 08:18:30;;;;;;;3.13;1.10;;;-5.20;99.90;;;;;;4919848;29;20126;-78
2021/12/25 08:20:56;;;;;;;5.03;1.58;;;;;;;;;;4945800;29;20399;-73
2021/12/25 08:23:22;;;;;;;3.97;1.40;;;-5.20;99.90;;;;;;4920451;29;20110;-73
2021/12/25 08:25:48;;;;;;;3.47;1.02;;;;;;;;;;4945483;29;20047;-74
2021/12/25 08:28:14;;;;;;;4.10;1.50;;;;;;;;;;4950083;29;20047;-73
2021/12/25 08:30:39;;;;;;;6.50;1.48;;;-5.20;99.90;;;;;;4924472;29;20051;-72
2021/12/25 08:33:05;;;;;;;6.15;1.60;;;-5.30;99.90;;;;;;4926579;29;20082;-72
2021/12/25 08:35:32;;;;;;;3.15;1.30;;;-5.50;99.90;;;;;;4946245;28;20095;-75
2021/12/25 08:37:58;;;;;;;3.78;1.30;;;-4.70;99.90;;;;;;4931277;29;20055;-74
2021/12/25 08:40:24;;;;;;;6.68;1.50;;;-4.60;99.90;;;;;;4944160;29;20090;-74
2021/12/25 08:42:56;;;;;;;5.60;1.60;;;;;;;;;;4943400;29;20039;-76
2021/12/25 08:45:43;;;;;;;2.95;1.10;;;;;;;;;;4944574;29;20057;-73
2021/12/25 08:48:19;;;;;;;3.97;1.35;;;-5.00;99.90;;;;;;4946111;29;20043;-75
2021/12/25 08:50:50;;;;;;;2.22;0.90;;;-5.00;99.90;;;;;;4934414;29;20066;-74
2021/12/25 08:53:17;;;;;;;9.30;2.15;;;-4.90;99.90;;;;;;4950080;29;20039;-76
2021/12/25 08:55:43;;;;;;;2.28;1.05;;;-3.30;99.90;;;;;;4940808;29;20066;-75
2021/12/25 08:58:09;;;;;;;5.38;1.40;;;-2.60;99.90;;;;;;4944723;29;20044;-73
2021/12/25 09:00:35;;;;;;;8.40;2.10;;;-4.40;99.90;;;;;;4957704;29;20134;-76
2021/12/25 09:03:01;;;;;;;9.82;3.95;;;-3.50;99.90;;;;;;4957876;29;20047;-76
2021/12/25 09:05:27;;;;;;;6.60;2.35;;;-4.90;99.90;;;;;;4957562;29;20078;-78
2021/12/25 09:07:52;;;;;;;8.35;3.03;;;-4.80;99.90;;;;;;4957039;29;20110;-79
2021/12/25 09:10:19;;;;;;;8.02;3.67;;;-4.80;99.90;;;;;;4956726;29;20126;-75
2021/12/25 09:12:45;;;;;;;12.32;4.90;;;-4.80;99.90;;;;;;4947971;29;20048;-75
2021/12/25 09:15:12;;;;;;;8.57;3.38;;;-3.40;99.90;;;;;;4946254;29;20039;-75
2021/12/25 09:17:39;;;;;;;7.18;2.72;;;-4.70;99.90;;;;;;4947485;29;20042;-76
2021/12/25 09:20:07;;;;;;;5.70;2.42;;;-4.70;99.90;;;;;;4947709;29;20051;-74
2021/12/25 09:22:33;;;;;;;7.35;2.13;;;-4.60;99.90;;;;;;4946375;29;20103;-72
2021/12/25 09:24:59;;;;;;;4.05;1.67;;;-2.50;99.90;;;;;;4930327;29;20087;-73
2021/12/25 09:27:25;;;;;;;6.72;2.53;;;-4.50;99.90;;;;;;4953165;29;20044;-79
2021/12/25 09:29:51;;;;;;;9.00;2.28;;;-4.50;99.90;;;;;;4946167;29;20058;-74
2021/12/25 09:32:18;;;;;;;8.90;2.22;;;-4.50;99.90;;;;;;4947511;29;20043;-74
2021/12/25 09:34:45;;;;;;;5.10;1.77;;;-4.40;99.90;;;;;;4947467;29;20067;-76
2021/12/25 09:37:12;;;;;;;4.75;1.50;;;-4.40;99.90;;;;;;4946020;29;20084;-77
2021/12/25 09:39:39;;;;;;;3.60;1.05;;;-4.30;99.90;;;;;;4929631;29;20091;-77
2021/12/25 09:42:06;;;;;;;1.98;0.90;;;-4.30;99.90;;;;;;4953280;29;20047;-78
2021/12/25 09:44:32;;;;;;;4.35;1.30;;;-4.20;99.90;;;;;;4945447;29;20062;-79
2021/12/25 09:46:57;;;;;;;5.05;1.45;;;-4.20;99.90;;;;;;4947099;29;20479;-79
2021/12/25 09:49:23;;;;;;;5.35;1.83;;;-4.10;99.90;;;;;;4952686;29;20454;-78
2021/12/25 09:52:02;;;;;;;4.15;1.55;;;-4.10;99.90;;;;;;4956876;29;20380;-75
2021/12/25 09:54:28;;;;;;;5.60;1.50;;;-4.10;99.90;;;;;;4956415;29;20126;-75
2021/12/25 09:57:04;;;;;;;4.30;1.55;;;-4.30;99.90;;;;;;4940945;29;20411;-76
2021/12/25 09:59:29;;;;;;;4.68;1.10;;;-4.00;99.90;;;;;;4955983;29;20043;-75
2021/12/25 10:01:57;;;;;;;9.25;2.47;;;-4.00;99.90;;;;;;4956426;29;20051;-75
2021/12/25 10:04:50;;;;;;;6.75;1.77;;;-3.90;99.90;;;;;;4956559;29;20047;-75
2021/12/25 10:07:23;;;;;;;4.65;1.50;;;-3.80;99.90;;;;;;4881722;29;20056;-77
2021/12/25 10:09:59;;;;;;;6.90;1.40;;;-3.80;99.90;;;;;;4881533;29;20083;-73
2021/12/25 10:12:52;;;;;;;5.18;1.60;;;-3.70;99.90;;;;;;4896982;29;20103;-73
2021/12/25 10:15:25;;;;;;;6.57;2.13;;;-3.70;99.90;;;;;;4825805;29;20058;-75
2021/12/25 10:17:57;;;;;;;5.28;1.33;;;-3.60;99.90;;;;;;4841447;29;20069;-75
2021/12/25 10:20:28;;;;;;;7.30;1.58;;;-3.60;99.90;;;;;;4841735;29;20122;-74
2021/12/25 10:23:02;;;;;;;4.72;1.77;;;-3.50;99.90;;;;;;4841412;29;20053;-74
2021/12/25 10:25:38;;;;;;;6.00;1.60;;;-3.50;99.90;;;;;;4841261;29;20486;-75
2021/12/25 10:28:06;;;;;;;5.65;2.38;;;-3.50;99.90;;;;;;4841411;29;20050;-75
2021/12/25 10:31:03;;;;;;;4.07;1.23;;;-3.40;99.90;;;;;;4840615;29;20063;-76
2021/12/25 10:33:39;;;;;;;4.05;1.50;;;-3.40;99.90;;;;;;4826260;29;20069;-73
2021/12/25 10:36:24;;;;;;;9.70;3.08;;;-3.30;99.90;;;;;;4840849;29;20080;-76
2021/12/25 10:39:16;;;;;;;6.38;2.63;;;-3.30;99.90;;;;;;4841012;29;20097;-76
2021/12/25 10:42:09;;;;;;;7.13;1.98;;;-3.20;99.90;;;;;;4841153;29;20054;-76
2021/12/25 10:44:40;;;;;;;13.63;4.00;;;-3.20;99.90;;;;;;4870687;29;20069;-77
2021/12/25 10:47:17;;;;;;;9.77;3.83;;;-3.20;99.90;;;;;;4895782;29;20055;-75
2021/12/25 10:49:57;;;;;;;14.77;4.47;;;-3.10;99.90;;;;;;4880900;29;20062;-75
2021/12/25 10:52:29;;;;;;;7.70;2.15;;;-3.00;99.90;;;;;;4916705;29;20055;-73
2021/12/25 10:55:05;;;;;;;13.05;4.53;;;-3.10;99.90;;;;;;4955563;29;20055;-78
2021/12/25 10:57:48;;;;;;;9.10;3.00;;;-3.00;99.90;;;;;;4955819;29;20155;-78
2021/12/25 11:00:37;;;;;;;7.55;1.90;;;-3.00;99.90;;;;;;4938577;29;20051;-75
2021/12/25 11:03:06;;;;;;;8.82;3.05;;;-2.90;99.90;;;;;;4937814;29;20049;-78
2021/12/25 11:05:33;;;;;;;9.50;2.00;;;-1.20;99.90;;;;;;4955664;29;20059;-75
2021/12/25 11:08:01;;;;;;;4.55;1.70;;;-2.90;99.90;;;;;;4955659;29;20047;-73
2021/12/25 11:10:29;;;;;;;4.32;1.75;;;-2.90;99.90;;;;;;4955460;29;20586;-77
2021/12/25 11:12:56;;;;;;;4.47;1.60;;;-2.80;99.90;;;;;;4955663;29;20055;-75
2021/12/25 11:15:25;;;;;;;10.98;3.80;;;-2.80;99.90;;;;;;4955540;29;20039;-75
2021/12/25 11:17:53;;;;;;;5.03;1.70;;;-2.70;99.90;;;;;;4937794;29;20058;-76
2021/12/25 11:20:39;;;;;;;7.57;1.25;;;-2.70;99.90;;;;;;4939592;29;20047;-73
2021/12/25 11:23:08;;;;;;;7.25;1.73;;;-2.70;99.90;;;;;;4951554;29;20050;-74
2021/12/25 11:25:35;;;;;;;10.55;2.67;;;-2.60;99.90;;;;;;4953893;29;20058;-74
2021/12/25 11:28:06;;;;;;;11.85;2.83;;;-2.60;99.90;;;;;;4955353;29;20122;-76
2021/12/25 11:30:37;;;;;;;3.10;1.17;;;-2.50;99.90;;;;;;4942337;29;20199;-75
2021/12/25 11:33:03;;;;;;;4.97;1.67;;;-2.40;99.90;;;;;;4936699;29;20040;-74
2021/12/25 11:35:31;;;;;;;4.28;1.10;;;-2.30;99.90;;;;;;4917478;29;20059;-76
2021/12/25 11:37:58;;;;;;;6.85;1.27;;;-2.40;99.90;;;;;;4935844;29;20044;-75
2021/12/25 11:40:26;;;;;;;5.25;1.20;;;-1.70;99.90;;;;;;4914587;29;20131;-73
2021/12/25 11:42:55;;;;;;;7.85;1.50;;;-2.30;99.90;;;;;;4932764;29;20412;-76
2021/12/25 11:45:27;;;;;;;6.35;1.60;;;-0.50;99.90;;;;;;4918695;29;20519;-75
2021/12/25 11:47:56;;;;;;;6.70;1.70;;;-2.30;99.90;;;;;;4932849;29;20052;-76
2021/12/25 11:50:39;;;;;;;3.63;1.27;;;-2.20;99.90;;;;;;4935554;29;20043;-76
2021/12/25 11:53:07;;;;;;;2.78;1.00;;;-2.20;99.90;;;;;;4918763;29;20519;-75
2021/12/25 11:58:39;;;;;;;4.10;1.45;;;-2.20;99.90;;;;;;4918809;29;20444;-76
2021/12/25 12:01:35;;;;;;;10.30;2.80;;;-2.10;99.90;;;;;;4922820;29;20063;-77
2021/12/25 12:04:13;;;;;;;11.35;2.45;;;-2.10;99.90;;;;;;4922314;29;20043;-76
2021/12/25 12:06:45;;;;;;;6.70;1.70;;;-2.10;99.90;;;;;;4922103;29;20043;-75
2021/12/25 12:09:20;;;;;;;4.50;1.88;;;-2.00;99.90;;;;;;4939589;29;20055;-76
2021/12/25 12:11:49;;;;;;;8.70;2.42;;;-2.00;99.90;;;;;;4922551;29;20050;-78
2021/12/25 12:14:15;;;;;;;7.35;2.42;;;-2.00;99.90;;;;;;4939302;29;20051;-76
2021/12/25 12:16:48;;;;;;;8.95;2.55;;;-2.00;99.90;;;;;;4939211;29;20069;-76
2021/12/25 12:19:39;;;;;;;10.18;3.42;;;-1.90;99.90;;;;;;4922806;29;20404;-76
2021/12/25 12:22:23;;;;;;;7.47;1.40;;;-1.90;99.90;;;;;;4921743;29;20194;-77
2021/12/25 12:27:37;;;;;;;4.88;1.65;;;-1.90;99.90;;;;;;4939440;29;20048;-76
2021/12/25 12:30:06;;;;;;;3.30;1.10;;;-1.90;99.90;;;;;;4939428;29;20448;-74
2021/12/25 12:32:45;;;;;;;10.60;2.67;;;-1.90;99.90;;;;;;4921672;29;20047;-77
2021/12/25 12:35:36;;;;;;;9.48;2.20;;;-0.20;99.90;;;;;;4938895;29;20095;-76
2021/12/25 12:38:27;;;;;;;5.65;1.33;;;-1.90;99.90;;;;;;4938428;29;20510;-77
2021/12/25 12:41:27;;;;;;;4.80;1.88;;;-1.90;99.90;;;;;;4921552;29;20071;-78
2021/12/25 12:44:09;;;;;;;8.55;2.00;;;-1.90;99.90;;;;;;4939131;29;20047;-76
2021/12/25 12:46:50;;;;;;;6.68;1.50;;;-1.80;99.90;;;;;;4938961;29;20058;-75
2021/12/25 12:49:27;;;;;;;6.97;2.00;;;-1.80;99.90;;;;;;4921933;29;20526;-76
2021/12/25 12:52:12;;;;;;;4.82;1.60;;;-1.80;99.90;;;;;;4905954;29;20138;-76
2021/12/25 12:54:53;;;;;;;2.50;1.30;;;-1.80;99.90;;;;;;4938075;29;20047;-76
2021/12/25 12:57:30;;;;;;;5.60;1.50;;;-1.80;99.90;;;;;;4921493;29;20059;-76
2021/12/25 13:00:14;;;;;;;6.47;1.88;;;-1.80;99.90;;;;;;4938342;29;20480;-76
2021/12/25 13:02:55;;;;;;;2.10;0.88;;;-1.90;99.90;;;;;;4937658;29;20531;-74
2021/12/25 13:05:24;;;;;;;5.80;1.60;;;-1.80;99.90;;;;;;4904531;29;20094;-78
2021/12/25 13:07:53;;;;;;;5.85;1.42;;;-1.80;99.90;;;;;;4920983;29;20055;-73
2021/12/25 13:10:27;;;;;;;4.68;1.42;;;-1.90;99.90;;;;;;4921020;29;20126;-76
2021/12/25 13:13:10;;;;;;;4.63;1.48;;;-1.90;99.90;;;;;;4938607;29;20038;-73
2021/12/25 13:15:36;;;;;;;4.20;1.45;;;-1.90;99.90;;;;;;4938456;29;20055;-73
2021/12/25 13:18:05;;;;;;;5.43;2.30;;;-1.90;99.90;;;;;;4921005;29;20496;-72
2021/12/25 13:20:46;;;;;;;14.07;5.70;;;-1.90;99.90;;;;;;4938606;29;20126;-74
2021/12/25 13:23:18;;;;;;;8.23;3.13;;;-1.90;99.90;;;;;;4920719;29;20075;-73
2021/12/25 13:25:59;;;;;;;8.20;2.90;;;-1.90;99.90;;;;;;4920406;29;20068;-74
2021/12/25 13:28:31;;;;;;;6.25;2.45;;;-1.90;99.90;;;;;;4932414;29;20081;-77
2021/12/25 13:31:00;;;;;;;9.85;3.78;;;-1.80;99.90;;;;;;4937745;29;20040;-75
2021/12/25 13:33:28;;;;;;;8.82;3.70;;;-1.80;99.90;;;;;;4937494;29;20063;-75
2021/12/25 13:36:06;;;;;;;10.40;5.00;;;-1.80;99.90;;;;;;4935926;29;20547;-72
2021/12/25 13:38:52;;;;;;;6.65;1.85;;;-1.80;99.90;;;;;;4936449;29;20065;-73
2021/12/25 13:41:33;;;;;;;6.15;1.15;;;-1.00;99.90;;;;;;4936747;29;20048;-74
2021/12/25 13:44:22;;;;;;;4.70;1.60;;;-1.80;99.90;;;;;;4936930;29;20079;-74
2021/12/25 13:47:15;;;;;;;5.72;2.22;;;-1.80;99.90;;;;;;4904379;29;20114;-74
2021/12/25 13:49:50;;;;;;;3.65;1.45;;;-1.80;99.90;;;;;;4920656;29;20054;-74
2021/12/25 13:52:19;;;;;;;5.57;1.90;;;-1.90;99.90;;;;;;4916855;29;20384;-74
2021/12/25 13:54:56;;;;;;;6.50;1.73;;;-1.90;99.90;;;;;;4919184;29;20078;-75
2021/12/25 13:57:23;;;;;;;5.90;2.33;;;-1.90;99.90;;;;;;4937009;29;20051;-81
2021/12/25 13:59:55;;;;;;;5.47;1.30;;;-1.90;99.90;;;;;;4937254;29;20042;-75
2021/12/25 14:02:22;;;;;;;5.07;1.48;;;-1.90;99.90;;;;;;4937755;29;20090;-75
2021/12/25 14:04:52;;;;;;;7.25;1.63;;;-1.90;99.90;;;;;;4920298;29;20075;-74
2021/12/25 14:07:26;;;;;;;6.90;1.80;;;-2.00;99.90;;;;;;4920313;29;20048;-74
2021/12/25 14:10:11;;;;;;;7.72;1.92;;;-2.00;99.90;;;;;;4937236;29;20090;-76
2021/12/25 14:12:40;;;;;;;5.60;2.08;;;-2.00;99.90;;;;;;4937032;29;20078;-76
2021/12/25 14:15:08;;;;;;;8.35;3.28;;;-2.00;99.90;;;;;;4937294;29;20435;-75
2021/12/25 14:17:35;;;;;;;10.15;3.22;;;-2.00;99.90;;;;;;4937210;29;20095;-75
2021/12/25 14:20:21;;;;;;;7.95;3.13;;;-2.10;99.90;;;;;;4937303;29;20039;-74
2021/12/25 14:22:50;;;;;;;9.95;3.70;;;-2.00;99.90;;;;;;4936389;29;20052;-76
2021/12/25 14:25:28;;;;;;;5.53;1.48;;;-2.10;99.90;;;;;;4937295;29;20118;-74
2021/12/25 14:28:16;;;;;;;4.22;1.42;;;-2.10;99.90;;;;;;4936694;29;20131;-75
2021/12/25 14:31:04;;;;;;;6.85;1.40;;;-2.20;99.90;;;;;;4936926;29;20134;-75